Millennium — 9HJF9 — position and weather

sailwx.info

Track history (hours):
 
Tides and Currents Weather Stations Pressure Air Temp Water Temp Dewpoint Dewpoint Depression Visibility Wind Speed Wind Dir Waves Ship Positions

Millennium

Last reported at 2017-May-29 15:00 UTC. Time now 2017-May-29 16:58 UTC.
Position N 57°42' W 134°48'.

Length 294 m; draft 8.3 m.

Type: Passenger vessel. MMSI: 249055000.

Wind from 160 at 23 knots

Barometer 1018.0 mb
Air temperature 12.0 ° C
Water temperature 8.0 ° C

Date/timePositionNaut miles runAvg speedWind from/ knotsBaromVisibWave heightAir tempDewpointWater temp
2017-May-29 15:00N 57°42' W 134°48'1212.4 160 / 231018.0 12.0 8.0
2017-May-29 14:00N 57°30' W 134°42'8516.9 170 / 151018.0 10.0 7.0
2017-May-29 09:00N 56°06' W 134°24'6210.3 200 / 151018.0 9.0 22.4
2017-May-29 03:00N 55°54' W 132°36'3115.7 150 / 251018.0 12.0 7.0
2017-May-29 01:00N 55°30' W 132°00'18 4.5 170 / 81018.0 15.0 8.0
2017-May-28 21:00N 55°18' W 131°36'69 5.3 100 / 111018.0 20.0 10.0
2017-May-28 08:00N 54°12' W 131°00'7414.8 340 / 91019.0 0.3 12.0 12.0
2017-May-28 03:00N 53°00' W 130°30'1414.0 340 / 221020.0 10.0 7.0
2017-May-28 02:00N 52°48' W 130°18'3012.5 330 / 171020.0 12.0 7.0
2017-May-27 23:34N 52°22' W 129°53'113.7
2017-May-27 23:30N 52°21' W 129°52'612.4
2017-May-27 23:00N 52°15' W 129°47'714.2
2017-May-27 22:30N 52°10' W 129°40'714.1
2017-May-27 22:01N 52°05' W 129°32'713.9
2017-May-27 21:30N 51°60' W 129°25'714.3
2017-May-27 21:00N 51°54' W 129°17'714.6
2017-May-27 20:31N 51°49' W 129°09'714.2
2017-May-27 20:00N 51°44' W 129°01'5320.1
2017-May-27 20:00N 51°48' W 129°06'1225.0 360 / 91021.0 12.0 11.0
2017-May-27 19:30N 51°39' W 128°53'713.7
2017-May-27 19:00N 51°34' W 128°46'4282.9
2017-May-27 19:00N 51°30' W 128°42'3 5.2 010 / 81020.0 0.1 11.0 13.0
2017-May-27 18:30N 51°29' W 128°39'714.2
2017-May-27 18:00N 51°23' W 128°31'713.9
2017-May-27 17:31N 51°18' W 128°23'714.0
2017-May-27 17:00N 51°14' W 128°15'814.3
2017-May-27 16:28N 51°08' W 128°06'714.2
2017-May-27 15:57N 51°03' W 127°58'613.4
2017-May-27 15:30N 50°60' W 127°50'713.2
2017-May-27 15:00N 50°56' W 127°42'9610.6
2017-May-27 15:00N 50°48' W 127°36'1010.4 110 / 81020.0 8.4 3.0
2017-May-27 14:00N 50°48' W 127°20'10732.9
2017-May-27 14:00N 50°42' W 127°06'3 6.1 100 / 21020.0 3.0
2017-May-27 13:30N 50°45' W 127°08'816.1
2017-May-27 13:00N 50°42' W 126°56'815.2
2017-May-27 12:29N 50°37' W 126°46'5315.3
2017-May-27 09:00N 50°20' W 125°27'815.4
2017-May-27 08:30N 50°13' W 125°23'713.2
2017-May-27 08:00N 50°07' W 125°19'8531.3
2017-May-27 08:00N 50°00' W 125°12'2 3.6 330 / 191017.0 13.8 10.0
2017-May-27 07:30N 50°02' W 125°13'714.1
2017-May-27 07:00N 49°56' W 125°07'9557.4
2017-May-27 07:00N 49°48' W 125°00'3 6.7 360 / 191016.0 0.3 17.0 14.0
2017-May-27 06:30N 49°51' W 124°59'714.4
2017-May-27 06:00N 49°46' W 124°50'714.5
2017-May-27 05:30N 49°41' W 124°42'714.0
2017-May-27 05:00N 49°35' W 124°36'714.3
2017-May-27 04:30N 49°30' W 124°29'2213.9
2017-May-27 02:56N 49°22' W 123°58'613.8
2017-May-27 02:30N 49°20' W 123°49'713.6
2017-May-27 02:00N 49°19' W 123°39'713.6
2017-May-27 01:30N 49°19' W 123°29'714.2
2017-May-27 01:00N 49°19' W 123°18'612.5
2017-May-27 00:30N 49°19' W 123°08'2 4.0
2017-May-27 00:00N 49°17' W 123°07'0 0.1
2017-May-26 23:30N 49°17' W 123°07'0 0.0
2017-May-26 23:00N 49°17' W 123°07'0 0.0
2017-May-26 22:11N 49°17' W 123°07'0 0.0
2017-May-26 21:53N 49°17' W 123°07'0 0.0
2017-May-26 21:23N 49°17' W 123°07'513.6
2017-May-26 21:00N 49°12' W 123°06'547.0 320 / 51015.0 21.4 11.0
2017-May-26 20:53N 49°17' W 123°07'0 0.0
2017-May-26 20:29N 49°17' W 123°07'0 0.0
2017-May-26 19:58N 49°17' W 123°07'0 0.0
2017-May-26 19:28N 49°17' W 123°07'0 0.0
2017-May-26 18:59N 49°17' W 123°07'0 0.0
2017-May-26 18:28N 49°17' W 123°07'0 0.0
2017-May-26 17:57N 49°17' W 123°07'0 0.0
2017-May-26 17:30N 49°17' W 123°07'0 0.0
2017-May-26 17:00N 49°17' W 123°07'0 0.0
2017-May-26 16:30N 49°17' W 123°07'0 0.0
2017-May-26 15:48N 49°17' W 123°07'0 0.0
2017-May-26 15:30N 49°17' W 123°07'0 0.0
2017-May-26 15:00N 49°17' W 123°07'0 0.0
2017-May-26 14:01N 49°17' W 123°07'0 0.8
2017-May-26 13:31N 49°18' W 123°06'3 6.5
2017-May-26 13:01N 49°19' W 123°11'4 7.5
2017-May-26 12:31N 49°18' W 123°16'4 8.5
2017-May-26 12:00N 49°17' W 123°23'4 8.6
2017-May-26 11:30N 49°16' W 123°29'4 8.1
2017-May-26 11:00N 49°16' W 123°35'2 4.6
2017-May-26 10:30N 49°14' W 123°36'4 8.8
2017-May-26 10:00N 49°11' W 123°31'4 8.3
2017-May-26 09:31N 49°08' W 123°27'4 8.4
2017-May-26 09:01N 49°05' W 123°22'4 8.8
2017-May-26 08:30N 49°02' W 123°18'4 8.8
2017-May-26 08:00N 48°59' W 123°13'7615.0
2017-May-26 08:00N 48°54' W 123°06'3 5.2 040 / 21012.0 15.5 13.0
2017-May-26 07:30N 48°56' W 123°08'5 8.8
2017-May-26 07:00N 48°53' W 123°03'4 8.9
2017-May-26 06:31N 48°50' W 122°59'814.6
2017-May-26 06:00N 48°42' W 123°00'41810.2 230 / 71011.0 0.3 13.0
2017-May-26 05:59N 48°46' W 123°02'4 8.0
2017-May-26 05:31N 48°44' W 123°07'4 8.5
2017-May-26 05:00N 48°42' W 123°13'3 6.5
2017-May-26 04:30N 48°39' W 123°14'4 8.7
2017-May-26 04:01N 48°35' W 123°13'4 8.6
2017-May-26 03:30N 48°31' W 123°11'5 9.5
2017-May-26 03:01N 48°26' W 123°10'4 7.6
2017-May-26 02:31N 48°24' W 123°14'4 7.7
2017-May-26 02:00N 48°22' W 123°19'6442.2
2017-May-26 02:00N 48°18' W 123°12'1020.6 270 / 151017.027.0 13.1 9.312.1
2017-May-26 01:30N 48°24' W 123°24'1 1.9
2017-May-26 00:55N 48°25' W 123°23'0 0.0
2017-May-26 00:24N 48°25' W 123°23'0 0.0
2017-May-26 00:00N 48°25' W 123°23'0 0.0
2017-May-25 23:30N 48°25' W 123°23'0 0.0
2017-May-25 23:00N 48°25' W 123°23'0 0.0
2017-May-25 22:24N 48°25' W 123°23'0 0.0
2017-May-25 21:59N 48°25' W 123°23'0 0.0
2017-May-25 21:29N 48°25' W 123°23'4 7.5
2017-May-25 21:00N 48°24' W 123°18'4515.9 120 / 61013.0 15.6 15.6
2017-May-25 20:59N 48°25' W 123°23'0 0.0
2017-May-25 20:29N 48°25' W 123°23'0 0.0
2017-May-25 19:40N 48°25' W 123°23'0 0.0
2017-May-25 19:16N 48°25' W 123°23'0 0.0
2017-May-25 18:46N 48°25' W 123°23'0 0.0
2017-May-25 18:28N 48°25' W 123°23'0 0.0
2017-May-25 17:58N 48°25' W 123°23'0 0.0
2017-May-25 17:24N 48°25' W 123°23'0 0.0
2017-May-25 16:57N 48°25' W 123°23'0 0.0
2017-May-25 16:30N 48°25' W 123°23'0 0.0
2017-May-25 16:00N 48°25' W 123°23'0 0.5
2017-May-25 15:31N 48°25' W 123°24'3 5.7
2017-May-25 15:00N 48°22' W 123°22'8 8.1
2017-May-25 14:01N 48°27' W 123°12'611.0
2017-May-25 13:31N 48°33' W 123°13'612.8
2017-May-25 13:00N 48°39' W 123°15'3208.0
2017-May-25 13:00N 48°42' W 123°12'1 2.8 050 / 31015.027.0 8.1 4.6 7.3
2017-May-25 12:30N 48°43' W 123°11'511.0
2017-May-25 12:01N 48°46' W 123°04'4 8.3
2017-May-25 11:30N 48°50' W 123°03'611.1
2017-May-25 11:00N 48°54' W 123°09'510.9
2017-May-25 10:30N 48°58' W 123°15'510.9
2017-May-25 10:00N 49°01' W 123°21'510.7
2017-May-25 09:30N 49°06' W 123°26'611.2
2017-May-25 09:00N 49°11' W 123°30'611.2
2017-May-25 08:30N 49°14' W 123°36'610.9
2017-May-25 08:00N 49°17' W 123°44'510.9
2017-May-25 07:30N 49°19' W 123°51'2 3.3
2017-May-25 07:00N 49°18' W 123°54'1211.7 270 / 191013.0 13.7 13.0
2017-May-25 06:00N 49°18' W 124°12'935.6 290 / 191014.0 0.3 14.0 14.0
2017-May-25 05:44N 49°26' W 124°20'311.4
2017-May-25 05:31N 49°27' W 124°24'611.4
2017-May-25 05:00N 49°31' W 124°31'511.2
2017-May-25 04:31N 49°34' W 124°37'611.1
2017-May-25 04:00N 49°38' W 124°43'611.1
2017-May-25 03:30N 49°43' W 124°47'510.7
2017-May-25 03:00N 49°47' W 124°53'511.0
2017-May-25 02:30N 49°51' W 124°59'510.5
2017-May-25 02:00N 49°54' W 125°05'611.2
2017-May-25 01:29N 49°59' W 125°11'2 3.1
2017-May-25 01:00N 50°00' W 125°12'413434.0 330 / 251015.027.0 11.3 9.112.0
2017-May-25 00:59N 50°03' W 125°15'612.3
2017-May-25 00:30N 50°08' W 125°21'713.8
2017-May-25 00:01N 50°14' W 125°23'5616.3
2017-May-24 20:32N 50°36' W 126°45'320.4
2017-May-24 20:24N 50°38' W 126°48'819.0
2017-May-24 20:00N 50°42' W 126°58'1529.3
2017-May-24 20:00N 50°42' W 127°00'917.2 300 / 271019.0 12.1 10.0
2017-May-24 19:28N 50°46' W 127°13'918.4
2017-May-24 19:00N 50°49' W 127°25'919.1
2017-May-24 18:31N 50°54' W 127°38'918.3
2017-May-24 18:00N 50°59' W 127°50'5444.5
2017-May-24 18:00N 50°54' W 127°48'1428.0 330 / 301020.0 0.1 11.0 12.0
2017-May-24 17:30N 51°05' W 128°01'918.0
2017-May-24 17:01N 51°11' W 128°11'917.7
2017-May-24 16:31N 51°17' W 128°22'917.6
2017-May-24 16:01N 51°23' W 128°32'917.7
2017-May-24 15:31N 51°30' W 128°41'917.5
2017-May-24 15:01N 51°36' W 128°51'917.5
2017-May-24 14:31N 51°43' W 129°00'1818.1
2017-May-24 13:30N 51°56' W 129°20'2818.4
2017-May-24 12:00N 52°18' W 129°48'34181139.2 050 / 201015.027.0 11.4 9.010.4
2017-May-24 09:00N 58°18' E 130°42'33261662.9 310 / 401019.0 10.0 10.0
2017-May-24 07:00N 53°30' W 130°48'31 1.3 310 / 301019.0 0.3 10.0 12.0
2017-May-23 08:00N 54°00' W 131°00'3115.4 180 / 211014.0 10.7 10.0
2017-May-23 06:00N 53°30' W 130°48'7418.4 160 / 651016.0 0.1 11.0 12.0
2017-May-23 02:00N 52°24' W 129°54'2121.1 230 / 151018.027.0 14.112.414.1
2017-May-23 01:00N 52°06' W 129°36'3 2.1 230 / 201013.027.0 11.2 9.211.2
2017-May-22 23:27N 52°04' W 129°32'2 4.4
2017-May-22 23:00N 52°03' W 129°29'713.6
2017-May-22 22:30N 51°58' W 129°22'815.3
2017-May-22 22:00N 51°52' W 129°14'815.7
2017-May-22 21:30N 51°46' W 129°05'815.5
2017-May-22 21:00N 51°40' W 128°57'815.5
2017-May-22 20:30N 51°35' W 128°49'815.1
2017-May-22 20:00N 51°29' W 128°40'815.5
2017-May-22 19:30N 51°23' W 128°32'815.3
2017-May-22 19:01N 51°18' W 128°23'133.2
2017-May-22 19:00N 51°18' W 128°24'816.8 260 / 121023.0 13.3 12.0
2017-May-22 18:30N 51°13' W 128°14'815.3
2017-May-22 18:00N 51°08' W 128°04'3306.8
2017-May-22 18:00N 51°06' W 128°00'4 8.7 250 / 121023.0 0.3 12.0 12.0
2017-May-22 17:30N 51°03' W 127°55'714.6
2017-May-22 17:00N 50°59' W 127°46'714.8
2017-May-22 16:30N 50°54' W 127°37'815.4
2017-May-22 16:00N 50°50' W 127°27'815.2
2017-May-22 15:30N 50°47' W 127°16'815.0
2017-May-22 15:00N 50°44' W 127°05'1515.1
2017-May-22 13:59N 50°36' W 126°44'814.4
2017-May-22 13:26N 50°31' W 126°35'715.5
2017-May-22 13:00N 50°30' W 126°24'010.3 050 / 131018.027.0 10.7 7.611.3
2017-May-22 12:58N 50°30' W 126°24'817.9
2017-May-22 12:30N 50°29' W 126°11'1217.8
2017-May-22 11:48N 50°24' W 125°53'1215.3
2017-May-22 11:00N 50°18' W 125°36'638.0 050 / 221020.027.0 13.1 9.511.1
2017-May-22 10:50N 50°20' W 125°27'515.0
2017-May-22 10:30N 50°16' W 125°24'816.3
2017-May-22 10:00N 50°08' W 125°21'713.3
2017-May-22 09:30N 50°03' W 125°14'612.5
2017-May-22 09:01N 49°58' W 125°09'510.4
2017-May-22 08:30N 49°54' W 125°03'611.4
2017-May-22 08:00N 49°50' W 124°57'10868.8
2017-May-22 08:00N 49°42' W 124°48'510.0 310 / 201021.5 17.3 17.3
2017-May-22 07:30N 49°46' W 124°51'611.2
2017-May-22 07:00N 49°43' W 124°45'611.0
2017-May-22 06:30N 49°38' W 124°39'611.4
2017-May-22 06:00N 49°34' W 124°34'5313.1
2017-May-22 06:00N 49°30' W 124°30'1 2.0 030 / 41022.0 0.3 18.0 15.0
2017-May-22 05:31N 49°29' W 124°29'610.8
2017-May-22 04:59N 49°26' W 124°21'611.3
2017-May-22 04:26N 49°24' W 124°13'711.6
2017-May-22 03:48N 49°22' W 124°02'311.5
2017-May-22 03:30N 49°21' W 123°57'611.3
2017-May-22 03:01N 49°20' W 123°48'611.4
2017-May-22 02:31N 49°18' W 123°40'611.0
2017-May-22 02:00N 49°16' W 123°32'510.9
2017-May-22 01:31N 49°17' W 123°24'510.8
2017-May-22 01:01N 49°19' W 123°16'295.2
2017-May-22 01:00N 49°18' W 123°18'612.8 050 / 161018.027.0 15.213.413.5
2017-May-22 00:30N 49°19' W 123°08'2 3.6
2017-May-21 23:57N 49°17' W 123°07'0 0.0
2017-May-21 23:27N 49°17' W 123°07'0 0.0
2017-May-21 22:54N 49°17' W 123°07'0 0.0
2017-May-21 22:29N 49°17' W 123°07'44578949.1
2017-May-21 22:00N 49°12' E 123°06'4457802286.7 340 / 31024.0 20.9 3.712.0
2017-May-21 21:59N 49°17' W 123°07'0 0.0
2017-May-21 21:29N 49°17' W 123°07'0 0.0
2017-May-21 20:59N 49°17' W 123°07'0 0.0
2017-May-21 20:29N 49°17' W 123°07'0 0.0
2017-May-21 19:58N 49°17' W 123°07'0 0.0
2017-May-21 19:19N 49°17' W 123°07'516.3
2017-May-21 19:00N 49°12' W 123°06'5197.1 310 / 41024.0 0.3 21.0 13.0
2017-May-21 18:58N 49°17' W 123°07'0 0.0
2017-May-21 18:28N 49°17' W 123°07'0 0.0
2017-May-21 17:51N 49°17' W 123°07'0 0.0
2017-May-21 17:30N 49°17' W 123°07'0 0.0
2017-May-21 17:00N 49°17' W 123°07'0 0.0
2017-May-21 16:30N 49°17' W 123°07'0 0.0
2017-May-21 15:57N 49°17' W 123°07'0 0.0
2017-May-21 15:29N 49°17' W 123°07'0 0.0
2017-May-21 14:50N 49°17' W 123°07'0 0.0
2017-May-21 14:29N 49°17' W 123°07'0 0.1
2017-May-21 13:30N 49°17' W 123°07'2 4.3
2017-May-21 13:00N 49°19' W 123°09'612.2
2017-May-21 12:30N 49°18' W 123°18'612.4
2017-May-21 12:00N 49°19' W 123°27'612.2
2017-May-21 11:30N 49°19' W 123°37'612.6
2017-May-21 11:00N 49°20' W 123°46'7650.3
2017-May-21 11:00N 49°18' W 123°36'1327.0 050 / 151020.027.0 14.312.411.3
2017-May-21 10:30N 49°21' W 123°56'610.7
2017-May-21 09:58N 49°22' W 124°04'1110.2
2017-May-21 08:53N 49°26' W 124°20'410.4
2017-May-21 08:30N 49°27' W 124°26'510.2
2017-May-21 07:58N 49°31' W 124°32'511.0
2017-May-21 07:30N 49°35' W 124°37'510.9
2017-May-21 07:00N 49°39' W 124°43'5392.1
2017-May-21 07:00N 49°36' W 124°36'1122.5 310 / 101022.0 17.4 14.0
2017-May-21 06:30N 49°44' W 124°48'510.7
2017-May-21 06:00N 49°48' W 124°54'7426.9
2017-May-21 06:00N 49°42' W 124°48'1224.7 310 / 101022.0 0.3 10.0 14.0
2017-May-21 05:30N 49°52' W 124°59'510.3
2017-May-21 05:00N 49°55' W 125°05'611.4
2017-May-21 04:30N 49°59' W 125°12'713.6
2017-May-21 04:00N 50°05' W 125°16'612.7
2017-May-21 03:30N 50°10' W 125°22'917.9
2017-May-21 03:00N 50°19' W 125°25'2818.4
2017-May-21 01:30N 50°28' W 126°06'510.2
2017-May-21 01:00N 50°24' W 126°12'2231.6 050 / 91015.027.0 11.3 9.1 9.3
2017-May-21 00:19N 50°34' W 126°42'618.1
2017-May-21 00:00N 50°38' W 126°48'1121.8
2017-May-20 23:30N 50°44' W 127°03'1122.1
2017-May-20 23:00N 50°48' W 127°19'2116.8
2017-May-20 21:45N 50°58' W 127°48'1 2.8
2017-May-20 21:31N 50°58' W 127°49'1 1.6
2017-May-20 21:01N 50°58' W 127°48'4219.9
2017-May-20 21:00N 50°54' W 127°48'4 8.5 280 / 121024.0 10.6 10.0
2017-May-20 20:30N 50°58' W 127°49'1 2.1
2017-May-20 20:00N 50°57' W 127°48'2 3.0
2017-May-20 19:30N 50°58' W 127°50'2 4.6
2017-May-20 19:01N 50°60' W 127°53'510.3
2017-May-20 18:30N 51°02' W 128°00'817.1
2017-May-20 18:00N 51°04' W 128°13'9636.5
2017-May-20 18:00N 51°00' W 128°00'1836.7 230 / 21024.0 0.3 10.0 12.0
2017-May-20 17:30N 51°07' W 128°26'917.6
2017-May-20 17:00N 51°10' W 128°39'917.5
2017-May-20 16:30N 51°13' W 128°52'917.8
2017-May-20 16:00N 51°17' W 129°05'917.4
2017-May-20 15:30N 51°20' W 129°18'917.1
2017-May-20 15:00N 51°22' W 129°31'4280.2
2017-May-20 15:00N 51°18' W 129°30'2120.6 050 / 21020.027.0 9.1 5.011.4
2017-May-20 13:59N 51°28' W 129°59'1017.6
2017-May-20 13:26N 51°31' W 130°14'6418.7
2017-May-20 10:00N 51°48' W 131°54'5117.1 130 / 61022.0 10.2 11.0
2017-May-20 07:00N 52°06' W 133°12'6516.2 140 / 101022.0 0.3 8.0 11.0
2017-May-20 03:00N 52°24' W 134°54'   230 / 61000.027.0 8.1 6.711.9
Track history (hours):
 
Tides and Currents Weather Stations Pressure Air Temp Water Temp Dewpoint Dewpoint Depression Visibility Wind Speed Wind Dir Waves Ship Positions

Millennium

Last reported at 2017-May-29 15:00 UTC. Time now 2017-May-29 16:58 UTC.
Position N 57°42' W 134°48'.

Length 294 m; draft 8.3 m.

Type: Passenger vessel. MMSI: 249055000.

Wind from 160 at 23 knots

Barometer 1018.0 mb
Air temperature 12.0 ° C
Water temperature 8.0 ° C

Date/timePositionNaut miles runAvg speedWind from/ knotsBaromVisibWave heightAir tempDewpointWater temp
2017-May-29 15:00N 57°42' W 134°48'1212.4 160 / 231018.0 12.0 8.0
2017-May-29 14:00N 57°30' W 134°42'8516.9 170 / 151018.0 10.0 7.0
2017-May-29 09:00N 56°06' W 134°24'6210.3 200 / 151018.0 9.0 22.4
2017-May-29 03:00N 55°54' W 132°36'3115.7 150 / 251018.0 12.0 7.0
2017-May-29 01:00N 55°30' W 132°00'18 4.5 170 / 81018.0 15.0 8.0
2017-May-28 21:00N 55°18' W 131°36'69 5.3 100 / 111018.0 20.0 10.0
2017-May-28 08:00N 54°12' W 131°00'7414.8 340 / 91019.0 0.3 12.0 12.0
2017-May-28 03:00N 53°00' W 130°30'1414.0 340 / 221020.0 10.0 7.0
2017-May-28 02:00N 52°48' W 130°18'3012.5 330 / 171020.0 12.0 7.0
2017-May-27 23:34N 52°22' W 129°53'113.7
2017-May-27 23:30N 52°21' W 129°52'612.4
2017-May-27 23:00N 52°15' W 129°47'714.2
2017-May-27 22:30N 52°10' W 129°40'714.1
2017-May-27 22:01N 52°05' W 129°32'713.9
2017-May-27 21:30N 51°60' W 129°25'714.3
2017-May-27 21:00N 51°54' W 129°17'714.6
2017-May-27 20:31N 51°49' W 129°09'714.2
2017-May-27 20:00N 51°44' W 129°01'5320.1
2017-May-27 20:00N 51°48' W 129°06'1225.0 360 / 91021.0 12.0 11.0
2017-May-27 19:30N 51°39' W 128°53'713.7
2017-May-27 19:00N 51°34' W 128°46'4282.9
2017-May-27 19:00N 51°30' W 128°42'3 5.2 010 / 81020.0 0.1 11.0 13.0
2017-May-27 18:30N 51°29' W 128°39'714.2
2017-May-27 18:00N 51°23' W 128°31'713.9
2017-May-27 17:31N 51°18' W 128°23'714.0
2017-May-27 17:00N 51°14' W 128°15'814.3
2017-May-27 16:28N 51°08' W 128°06'714.2
2017-May-27 15:57N 51°03' W 127°58'613.4
2017-May-27 15:30N 50°60' W 127°50'713.2
2017-May-27 15:00N 50°56' W 127°42'9610.6
2017-May-27 15:00N 50°48' W 127°36'1010.4 110 / 81020.0 8.4 3.0
2017-May-27 14:00N 50°48' W 127°20'10732.9
2017-May-27 14:00N 50°42' W 127°06'3 6.1 100 / 21020.0 3.0
2017-May-27 13:30N 50°45' W 127°08'816.1
2017-May-27 13:00N 50°42' W 126°56'815.2
2017-May-27 12:29N 50°37' W 126°46'5315.3
2017-May-27 09:00N 50°20' W 125°27'815.4
2017-May-27 08:30N 50°13' W 125°23'713.2
2017-May-27 08:00N 50°07' W 125°19'8531.3
2017-May-27 08:00N 50°00' W 125°12'2 3.6 330 / 191017.0 13.8 10.0
2017-May-27 07:30N 50°02' W 125°13'714.1
2017-May-27 07:00N 49°56' W 125°07'9557.4
2017-May-27 07:00N 49°48' W 125°00'3 6.7 360 / 191016.0 0.3 17.0 14.0
2017-May-27 06:30N 49°51' W 124°59'714.4
2017-May-27 06:00N 49°46' W 124°50'714.5
2017-May-27 05:30N 49°41' W 124°42'714.0
2017-May-27 05:00N 49°35' W 124°36'714.3
2017-May-27 04:30N 49°30' W 124°29'2213.9
2017-May-27 02:56N 49°22' W 123°58'613.8
2017-May-27 02:30N 49°20' W 123°49'713.6
2017-May-27 02:00N 49°19' W 123°39'713.6
2017-May-27 01:30N 49°19' W 123°29'714.2
2017-May-27 01:00N 49°19' W 123°18'612.5
2017-May-27 00:30N 49°19' W 123°08'2 4.0
2017-May-27 00:00N 49°17' W 123°07'0 0.1
2017-May-26 23:30N 49°17' W 123°07'0 0.0
2017-May-26 23:00N 49°17' W 123°07'0 0.0
2017-May-26 22:11N 49°17' W 123°07'0 0.0
2017-May-26 21:53N 49°17' W 123°07'0 0.0
2017-May-26 21:23N 49°17' W 123°07'513.6
2017-May-26 21:00N 49°12' W 123°06'547.0 320 / 51015.0 21.4 11.0
2017-May-26 20:53N 49°17' W 123°07'0 0.0
2017-May-26 20:29N 49°17' W 123°07'0 0.0
2017-May-26 19:58N 49°17' W 123°07'0 0.0
2017-May-26 19:28N 49°17' W 123°07'0 0.0
2017-May-26 18:59N 49°17' W 123°07'0 0.0
2017-May-26 18:28N 49°17' W 123°07'0 0.0
2017-May-26 17:57N 49°17' W 123°07'0 0.0
2017-May-26 17:30N 49°17' W 123°07'0 0.0
2017-May-26 17:00N 49°17' W 123°07'0 0.0
2017-May-26 16:30N 49°17' W 123°07'0 0.0
2017-May-26 15:48N 49°17' W 123°07'0 0.0
2017-May-26 15:30N 49°17' W 123°07'0 0.0
2017-May-26 15:00N 49°17' W 123°07'0 0.0
2017-May-26 14:01N 49°17' W 123°07'0 0.8
2017-May-26 13:31N 49°18' W 123°06'3 6.5
2017-May-26 13:01N 49°19' W 123°11'4 7.5
2017-May-26 12:31N 49°18' W 123°16'4 8.5
2017-May-26 12:00N 49°17' W 123°23'4 8.6
2017-May-26 11:30N 49°16' W 123°29'4 8.1
2017-May-26 11:00N 49°16' W 123°35'2 4.6
2017-May-26 10:30N 49°14' W 123°36'4 8.8
2017-May-26 10:00N 49°11' W 123°31'4 8.3
2017-May-26 09:31N 49°08' W 123°27'4 8.4
2017-May-26 09:01N 49°05' W 123°22'4 8.8
2017-May-26 08:30N 49°02' W 123°18'4 8.8
2017-May-26 08:00N 48°59' W 123°13'7615.0
2017-May-26 08:00N 48°54' W 123°06'3 5.2 040 / 21012.0 15.5 13.0
2017-May-26 07:30N 48°56' W 123°08'5 8.8
2017-May-26 07:00N 48°53' W 123°03'4 8.9
2017-May-26 06:31N 48°50' W 122°59'814.6
2017-May-26 06:00N 48°42' W 123°00'41810.2 230 / 71011.0 0.3 13.0
2017-May-26 05:59N 48°46' W 123°02'4 8.0
2017-May-26 05:31N 48°44' W 123°07'4 8.5
2017-May-26 05:00N 48°42' W 123°13'3 6.5
2017-May-26 04:30N 48°39' W 123°14'4 8.7
2017-May-26 04:01N 48°35' W 123°13'4 8.6
2017-May-26 03:30N 48°31' W 123°11'5 9.5
2017-May-26 03:01N 48°26' W 123°10'4 7.6
2017-May-26 02:31N 48°24' W 123°14'4 7.7
2017-May-26 02:00N 48°22' W 123°19'6442.2
2017-May-26 02:00N 48°18' W 123°12'1020.6 270 / 151017.027.0 13.1 9.312.1
2017-May-26 01:30N 48°24' W 123°24'1 1.9
2017-May-26 00:55N 48°25' W 123°23'0 0.0
2017-May-26 00:24N 48°25' W 123°23'0 0.0
2017-May-26 00:00N 48°25' W 123°23'0 0.0
2017-May-25 23:30N 48°25' W 123°23'0 0.0
2017-May-25 23:00N 48°25' W 123°23'0 0.0
2017-May-25 22:24N 48°25' W 123°23'0 0.0
2017-May-25 21:59N 48°25' W 123°23'0 0.0
2017-May-25 21:29N 48°25' W 123°23'4 7.5
2017-May-25 21:00N 48°24' W 123°18'4515.9 120 / 61013.0 15.6 15.6
2017-May-25 20:59N 48°25' W 123°23'0 0.0
2017-May-25 20:29N 48°25' W 123°23'0 0.0
2017-May-25 19:40N 48°25' W 123°23'0 0.0
2017-May-25 19:16N 48°25' W 123°23'0 0.0
2017-May-25 18:46N 48°25' W 123°23'0 0.0
2017-May-25 18:28N 48°25' W 123°23'0 0.0
2017-May-25 17:58N 48°25' W 123°23'0 0.0
2017-May-25 17:24N 48°25' W 123°23'0 0.0
2017-May-25 16:57N 48°25' W 123°23'0 0.0
2017-May-25 16:30N 48°25' W 123°23'0 0.0
2017-May-25 16:00N 48°25' W 123°23'0 0.5
2017-May-25 15:31N 48°25' W 123°24'3 5.7
2017-May-25 15:00N 48°22' W 123°22'8 8.1
2017-May-25 14:01N 48°27' W 123°12'611.0
2017-May-25 13:31N 48°33' W 123°13'612.8
2017-May-25 13:00N 48°39' W 123°15'3208.0
2017-May-25 13:00N 48°42' W 123°12'1 2.8 050 / 31015.027.0 8.1 4.6 7.3
2017-May-25 12:30N 48°43' W 123°11'511.0
2017-May-25 12:01N 48°46' W 123°04'4 8.3
2017-May-25 11:30N 48°50' W 123°03'611.1
2017-May-25 11:00N 48°54' W 123°09'510.9
2017-May-25 10:30N 48°58' W 123°15'510.9
2017-May-25 10:00N 49°01' W 123°21'510.7
2017-May-25 09:30N 49°06' W 123°26'611.2
2017-May-25 09:00N 49°11' W 123°30'611.2
2017-May-25 08:30N 49°14' W 123°36'610.9
2017-May-25 08:00N 49°17' W 123°44'510.9
2017-May-25 07:30N 49°19' W 123°51'2 3.3
2017-May-25 07:00N 49°18' W 123°54'1211.7 270 / 191013.0 13.7 13.0
2017-May-25 06:00N 49°18' W 124°12'935.6 290 / 191014.0 0.3 14.0 14.0
2017-May-25 05:44N 49°26' W 124°20'311.4
2017-May-25 05:31N 49°27' W 124°24'611.4
2017-May-25 05:00N 49°31' W 124°31'511.2
2017-May-25 04:31N 49°34' W 124°37'611.1
2017-May-25 04:00N 49°38' W 124°43'611.1
2017-May-25 03:30N 49°43' W 124°47'510.7
2017-May-25 03:00N 49°47' W 124°53'511.0
2017-May-25 02:30N 49°51' W 124°59'510.5
2017-May-25 02:00N 49°54' W 125°05'611.2
2017-May-25 01:29N 49°59' W 125°11'2 3.1
2017-May-25 01:00N 50°00' W 125°12'413434.0 330 / 251015.027.0 11.3 9.112.0
2017-May-25 00:59N 50°03' W 125°15'612.3
2017-May-25 00:30N 50°08' W 125°21'713.8
2017-May-25 00:01N 50°14' W 125°23'5616.3
2017-May-24 20:32N 50°36' W 126°45'320.4
2017-May-24 20:24N 50°38' W 126°48'819.0
2017-May-24 20:00N 50°42' W 126°58'1529.3
2017-May-24 20:00N 50°42' W 127°00'917.2 300 / 271019.0 12.1 10.0
2017-May-24 19:28N 50°46' W 127°13'918.4
2017-May-24 19:00N 50°49' W 127°25'919.1
2017-May-24 18:31N 50°54' W 127°38'918.3
2017-May-24 18:00N 50°59' W 127°50'5444.5
2017-May-24 18:00N 50°54' W 127°48'1428.0 330 / 301020.0 0.1 11.0 12.0
2017-May-24 17:30N 51°05' W 128°01'918.0
2017-May-24 17:01N 51°11' W 128°11'917.7
2017-May-24 16:31N 51°17' W 128°22'917.6
2017-May-24 16:01N 51°23' W 128°32'917.7
2017-May-24 15:31N 51°30' W 128°41'917.5
2017-May-24 15:01N 51°36' W 128°51'917.5
2017-May-24 14:31N 51°43' W 129°00'1818.1
2017-May-24 13:30N 51°56' W 129°20'2818.4
2017-May-24 12:00N 52°18' W 129°48'34181139.2 050 / 201015.027.0 11.4 9.010.4
2017-May-24 09:00N 58°18' E 130°42'33261662.9 310 / 401019.0 10.0 10.0
2017-May-24 07:00N 53°30' W 130°48'31 1.3 310 / 301019.0 0.3 10.0 12.0
2017-May-23 08:00N 54°00' W 131°00'3115.4 180 / 211014.0 10.7 10.0
2017-May-23 06:00N 53°30' W 130°48'7418.4 160 / 651016.0 0.1 11.0 12.0
2017-May-23 02:00N 52°24' W 129°54'2121.1 230 / 151018.027.0 14.112.414.1
2017-May-23 01:00N 52°06' W 129°36'3 2.1 230 / 201013.027.0 11.2 9.211.2
2017-May-22 23:27N 52°04' W 129°32'2 4.4
2017-May-22 23:00N 52°03' W 129°29'713.6
2017-May-22 22:30N 51°58' W 129°22'815.3
2017-May-22 22:00N 51°52' W 129°14'815.7
2017-May-22 21:30N 51°46' W 129°05'815.5
2017-May-22 21:00N 51°40' W 128°57'815.5
2017-May-22 20:30N 51°35' W 128°49'815.1
2017-May-22 20:00N 51°29' W 128°40'815.5
2017-May-22 19:30N 51°23' W 128°32'815.3
2017-May-22 19:01N 51°18' W 128°23'133.2
2017-May-22 19:00N 51°18' W 128°24'816.8 260 / 121023.0 13.3 12.0
2017-May-22 18:30N 51°13' W 128°14'815.3
2017-May-22 18:00N 51°08' W 128°04'3306.8
2017-May-22 18:00N 51°06' W 128°00'4 8.7 250 / 121023.0 0.3 12.0 12.0
2017-May-22 17:30N 51°03' W 127°55'714.6
2017-May-22 17:00N 50°59' W 127°46'714.8
2017-May-22 16:30N 50°54' W 127°37'815.4
2017-May-22 16:00N 50°50' W 127°27'815.2
2017-May-22 15:30N 50°47' W 127°16'815.0
2017-May-22 15:00N 50°44' W 127°05'1515.1
2017-May-22 13:59N 50°36' W 126°44'814.4
2017-May-22 13:26N 50°31' W 126°35'715.5
2017-May-22 13:00N 50°30' W 126°24'010.3 050 / 131018.027.0 10.7 7.611.3
2017-May-22 12:58N 50°30' W 126°24'817.9
2017-May-22 12:30N 50°29' W 126°11'1217.8
2017-May-22 11:48N 50°24' W 125°53'1215.3
2017-May-22 11:00N 50°18' W 125°36'638.0 050 / 221020.027.0 13.1 9.511.1
2017-May-22 10:50N 50°20' W 125°27'515.0
2017-May-22 10:30N 50°16' W 125°24'816.3
2017-May-22 10:00N 50°08' W 125°21'713.3
2017-May-22 09:30N 50°03' W 125°14'612.5
2017-May-22 09:01N 49°58' W 125°09'510.4
2017-May-22 08:30N 49°54' W 125°03'611.4
2017-May-22 08:00N 49°50' W 124°57'10868.8
2017-May-22 08:00N 49°42' W 124°48'510.0 310 / 201021.5 17.3 17.3
2017-May-22 07:30N 49°46' W 124°51'611.2
2017-May-22 07:00N 49°43' W 124°45'611.0
2017-May-22 06:30N 49°38' W 124°39'611.4
2017-May-22 06:00N 49°34' W 124°34'5313.1
2017-May-22 06:00N 49°30' W 124°30'1 2.0 030 / 41022.0 0.3 18.0 15.0
2017-May-22 05:31N 49°29' W 124°29'610.8
2017-May-22 04:59N 49°26' W 124°21'611.3
2017-May-22 04:26N 49°24' W 124°13'711.6
2017-May-22 03:48N 49°22' W 124°02'311.5
2017-May-22 03:30N 49°21' W 123°57'611.3
2017-May-22 03:01N 49°20' W 123°48'611.4
2017-May-22 02:31N 49°18' W 123°40'611.0
2017-May-22 02:00N 49°16' W 123°32'510.9
2017-May-22 01:31N 49°17' W 123°24'510.8
2017-May-22 01:01N 49°19' W 123°16'295.2
2017-May-22 01:00N 49°18' W 123°18'612.8 050 / 161018.027.0 15.213.413.5
2017-May-22 00:30N 49°19' W 123°08'2 3.6
2017-May-21 23:57N 49°17' W 123°07'0 0.0
2017-May-21 23:27N 49°17' W 123°07'0 0.0
2017-May-21 22:54N 49°17' W 123°07'0 0.0
2017-May-21 22:29N 49°17' W 123°07'44578949.1
2017-May-21 22:00N 49°12' E 123°06'4457802286.7 340 / 31024.0 20.9 3.712.0
2017-May-21 21:59N 49°17' W 123°07'0 0.0
2017-May-21 21:29N 49°17' W 123°07'0 0.0
2017-May-21 20:59N 49°17' W 123°07'0 0.0
2017-May-21 20:29N 49°17' W 123°07'0 0.0
2017-May-21 19:58N 49°17' W 123°07'0 0.0
2017-May-21 19:19N 49°17' W 123°07'516.3
2017-May-21 19:00N 49°12' W 123°06'5197.1 310 / 41024.0 0.3 21.0 13.0
2017-May-21 18:58N 49°17' W 123°07'0 0.0
2017-May-21 18:28N 49°17' W 123°07'0 0.0
2017-May-21 17:51N 49°17' W 123°07'0 0.0
2017-May-21 17:30N 49°17' W 123°07'0 0.0
2017-May-21 17:00N 49°17' W 123°07'0 0.0
2017-May-21 16:30N 49°17' W 123°07'0 0.0
2017-May-21 15:57N 49°17' W 123°07'0 0.0
2017-May-21 15:29N 49°17' W 123°07'0 0.0
2017-May-21 14:50N 49°17' W 123°07'0 0.0
2017-May-21 14:29N 49°17' W 123°07'0 0.1
2017-May-21 13:30N 49°17' W 123°07'2 4.3
2017-May-21 13:00N 49°19' W 123°09'612.2
2017-May-21 12:30N 49°18' W 123°18'612.4
2017-May-21 12:00N 49°19' W 123°27'612.2
2017-May-21 11:30N 49°19' W 123°37'612.6
2017-May-21 11:00N 49°20' W 123°46'7650.3
2017-May-21 11:00N 49°18' W 123°36'1327.0 050 / 151020.027.0 14.312.411.3
2017-May-21 10:30N 49°21' W 123°56'610.7
2017-May-21 09:58N 49°22' W 124°04'1110.2
2017-May-21 08:53N 49°26' W 124°20'410.4
2017-May-21 08:30N 49°27' W 124°26'510.2
2017-May-21 07:58N 49°31' W 124°32'511.0
2017-May-21 07:30N 49°35' W 124°37'510.9
2017-May-21 07:00N 49°39' W 124°43'5392.1
2017-May-21 07:00N 49°36' W 124°36'1122.5 310 / 101022.0 17.4 14.0
2017-May-21 06:30N 49°44' W 124°48'510.7
2017-May-21 06:00N 49°48' W 124°54'7426.9
2017-May-21 06:00N 49°42' W 124°48'1224.7 310 / 101022.0 0.3 10.0 14.0
2017-May-21 05:30N 49°52' W 124°59'510.3
2017-May-21 05:00N 49°55' W 125°05'611.4
2017-May-21 04:30N 49°59' W 125°12'713.6
2017-May-21 04:00N 50°05' W 125°16'612.7
2017-May-21 03:30N 50°10' W 125°22'917.9
2017-May-21 03:00N 50°19' W 125°25'2818.4
2017-May-21 01:30N 50°28' W 126°06'510.2
2017-May-21 01:00N 50°24' W 126°12'2231.6 050 / 91015.027.0 11.3 9.1 9.3
2017-May-21 00:19N 50°34' W 126°42'618.1
2017-May-21 00:00N 50°38' W 126°48'1121.8
2017-May-20 23:30N 50°44' W 127°03'1122.1
2017-May-20 23:00N 50°48' W 127°19'2116.8
2017-May-20 21:45N 50°58' W 127°48'1 2.8
2017-May-20 21:31N 50°58' W 127°49'1 1.6
2017-May-20 21:01N 50°58' W 127°48'4219.9
2017-May-20 21:00N 50°54' W 127°48'4 8.5 280 / 121024.0 10.6 10.0
2017-May-20 20:30N 50°58' W 127°49'1 2.1
2017-May-20 20:00N 50°57' W 127°48'2 3.0
2017-May-20 19:30N 50°58' W 127°50'2 4.6
2017-May-20 19:01N 50°60' W 127°53'510.3
2017-May-20 18:30N 51°02' W 128°00'817.1
2017-May-20 18:00N 51°04' W 128°13'9636.5
2017-May-20 18:00N 51°00' W 128°00'1836.7 230 / 21024.0 0.3 10.0 12.0
2017-May-20 17:30N 51°07' W 128°26'917.6
2017-May-20 17:00N 51°10' W 128°39'917.5
2017-May-20 16:30N 51°13' W 128°52'917.8
2017-May-20 16:00N 51°17' W 129°05'917.4
2017-May-20 15:30N 51°20' W 129°18'917.1
2017-May-20 15:00N 51°22' W 129°31'4280.2
2017-May-20 15:00N 51°18' W 129°30'2120.6 050 / 21020.027.0 9.1 5.011.4
2017-May-20 13:59N 51°28' W 129°59'1017.6
2017-May-20 13:26N 51°31' W 130°14'6418.7
2017-May-20 10:00N 51°48' W 131°54'5117.1 130 / 61022.0 10.2 11.0
2017-May-20 07:00N 52°06' W 133°12'6516.2 140 / 101022.0 0.3 8.0 11.0
2017-May-20 03:00N 52°24' W 134°54'   230 / 61000.027.0 8.1 6.711.9

Dump ship's entire track history